KWMC/WMC METAR and TAF weather

Enter ICAO airport designator
Station Type Date Time Source
KWMC METAR 2020/11/25 22:56 UTC NOAA

KWMC 252256Z AUTO 00000KT 10SM FEW049 BKN065 OVC080 04/M05 A3010 RMK AO2 SLP198 T00441050


Station Type Date Time Source
KWMC Decoded METAR 2020/11/25 22:56 UTC NOAA

WINNEMUCCA MUNICIPAL AIRPORT, NV, United States (KWMC) 40-54N 117-48W 1310M
Nov 25, 2020 - 05:56 PM EST / 2020.11.25 2256 UTC
Wind: Calm:0
Visibility: 10 mile(s):0
Sky conditions: overcast
Temperature: 39.9 F (4.4 C)
Dew Point: 23.0 F (-5.0 C)
Relative Humidity: 50%
Pressure (altimeter): 30.1 in. Hg (1019 hPa)
ob: KWMC 252256Z AUTO 00000KT 10SM FEW049 BKN065 OVC080 04/M05 A3010 RMK AO2 SLP198 T00441050
cycle: 23

Station Type Date Time Source
KWMC TAF 2020/11/25 18:22 UTC NOAA

TAF KWMC 251720Z 2518/2618 29012G22KT P6SM -SHSN SCT025 OVC035
FM252100 32009KT P6SM -SHSN SCT035 OVC050
FM260000 36005KT P6SM BKN050
FM261100 VRB05KT P6SM SCT050 BKN120

Example: see airport list